X  Chiuso Dati meteorologici dell'aviazione (METAR)     LIPX Verona-Villafranca Valerio Catullo Airport
Temperatura
46°F Temperatura
43°F Punto di rugiada
87% Umidità



Vento
5 MPH
8 KM/O
2 M/S
4 KTS



100°
E
Condizioni attuali

Nuvole per lo più sparse Nuvole per lo più sparse
Pressione 1006.77 (hPa) - 29.73 (inHg)
Visibilità 6 (miglio) - 9.7 (km)
Aeroporto
Codice-Aeroporto LIPX

Posizione: Verona-Villafranca Valerio Catullo Airport
Distanza: 0 (mi)

Metar:
LIPX 242120Z 10004KT 9999 SCT035 08/06 Q1007

Ore: 24-04-2024 21:20 CEST